Andamooka, Australia

2:53 PM ACDT on December 05, 2016 (GMT +1030)
Roxby Downs | | Change Station

Elev 371 ft 30.57 °S, 136.91 °E | Updated 7 seconds ago

Clear
Clear
84.0 °F
Feels Like 83 °F
N
4.3
Wind Variable Wind from SSE
Gusts 4.9 mph

Today
High -- | Low -- °F
--% Chance of Precip.
Yesterday
High -- | Low -- °F
Precip. -- in
Pressure 29.83 in
Visibility 6.2 miles
Clouds
Heat Index 83 °F
Dew Point 53 °F
Humidity 35%
Rainfall 0.00 in
Snow Depth Not available.
6:11 AM 8:12 PM
Waxing Crescent, 28% visible
METAR YOLD 050400Z AUTO 21008KT 180V250 9999 // NCD 29/10 Q1010
Pressure 29.83 in
Visibility 6.2 miles
Clouds
Heat Index 83 °F
Dew Point 53 °F
Humidity 35%
Rainfall 0.00 in
Snow Depth Not available.
6:11 AM 8:12 PM
Waxing Crescent, 28% visible
METAR YOLD 050400Z AUTO 21008KT 180V250 9999 // NCD 29/10 Q1010

10-Day Weather Forecast

×

Almanac

Astronomy

Dec. 05, 2016 Rise Set
Actual Time
Civil Twilight
Nautical Twilight
Astronomical Twilight
Moon
Length of Visible Light
Length of Day
Tomorrow will be .
, % of the Moon is Illuminated

Today's Extremes

Country Highs Country Lows

Community

WunderPhotos

Upload Photos

1,955,759 photos uploaded!

WunderBlog® & News

Nearby

Air Quality

  Air Quality AQ Index Pollutant
Not available.

Snow Depth

Station Depth Elevation

Earthquake Activity

City Distance Mag. Time & Date
Minimum magnitude displayed is 2.5.

Coastal Water Temperatures

Place Temperature

Stations

Nearby Weather Stations

Station Location Temp. Windchill Dew Point Humidity Wind Precip. Elev Updated Type